College Park, South Carolina
Current Conditions -  °F | °C
As of 4:56 AM on Saturday 22 Nov 2014 (Local Time) from KCHS Reporting Station
Clear Clear  
Wind Chill: 32°   Ceiling: Unl
Heat Index: 36°   Visibility: 10mi
Dew Point: 31°   Wind: 5mph
Humidity: 82%   Direction: 30°NNE
Pressure: 30.49"   Gusts: NA
Location:  32.9859°N, 80.1166°W
Report Text: KCHS 220956Z 03004KT 10SM CLR 02/M01 A3049 RMK AO2 SLP325 T00221006 $
Loading
Personal Weather Stations






























Interactive Weather Map New forecast layout! Learn more

10-Day Weather Forecast

Advertisements
Track Severe Weather on mobile